Ana Sayfa
METAR-TAF:

METAR-TAF

Havaalanları :

Bella Coola, İngiliz Kolombiyası, Kanada

Enlem: 52-23N, Boylam: 126-35W, yükseklik: 35 m

Güncel hava durumu gözlemi

Rapor saat 00:00 UTC de 1 saat ve 9 dakika önce yapıldı.
Rüzgar batı/kuzeybatıdan 10 kt ve 20 kt'a kadar ani rüzgarlar, batı/güneybatı ve kuzeybatı arasında değişken
Sıcaklık 31°C
Nem 38%
Basınç 1012 hPa
Görüş mesafesi: 24.1 km
30000 ft yükseklikte az bulutlu

METAR: CYBD 180000Z 29010G20KT 240V310 15SM FEW300 31/15 A2987 RMK CC1 CC TR CONTRAIL SLP118 DENSITY ALT 2100FT

Saat: 18:09 (01:09 UTC)


TAF: eksik

4.000'den fazla havaalanı için hava durumu gözlemleri ve tahminleri (METAR ve TAF raporları).

Kullanılabilir istasyonlar harita üzerinde sarı ve kırmızı noktalarla gösterilir.

İstasyonun adını görmek için fareyi noktanın üzerinde gezdirin.

Sonrasında hava gözlem ve tahminlerini görmek için tıklayın.

Haritayı değiştirmek için: yaklaştırmak için siyah artı işaretli yeşil düğmeye ve uzaklaştırmak için de eksi işaretli düğmeye hızla tıklayın; bitişik haritalar için yeşil okları kullanın.


METAR-TAF: